sensor_id;sensor_type;location;lat;lon;timestamp;pressure;altitude;pressure_sealevel;temperature;humidity
72285;BME280;60220;53.552;10.092;2024-03-23T00:53:57;100580.38;;;9.53;100.00
72285;BME280;60220;53.552;10.092;2024-03-23T00:56:23;100588.34;;;9.44;100.00
72285;BME280;60220;53.552;10.092;2024-03-23T00:58:49;100565.69;;;9.40;100.00
72285;BME280;60220;53.552;10.092;2024-03-23T01:01:16;100561.53;;;9.19;100.00
72285;BME280;60220;53.552;10.092;2024-03-23T01:03:42;100567.25;;;8.71;100.00
72285;BME280;60220;53.552;10.092;2024-03-23T01:06:08;100567.38;;;9.44;100.00
72285;BME280;60220;53.552;10.092;2024-03-23T01:08:34;100557.59;;;9.58;100.00
72285;BME280;60220;53.552;10.092;2024-03-23T01:11:02;100545.50;;;9.49;100.00
72285;BME280;60220;53.552;10.092;2024-03-23T01:13:28;100558.53;;;9.54;100.00
72285;BME280;60220;53.552;10.092;2024-03-23T01:15:56;100555.34;;;9.28;100.00
72285;BME280;60220;53.552;10.092;2024-03-23T01:18:23;100555.31;;;9.31;100.00
72285;BME280;60220;53.552;10.092;2024-03-23T01:20:51;100552.03;;;9.11;100.00
72285;BME280;60220;53.552;10.092;2024-03-23T01:23:19;100547.88;;;9.69;100.00
72285;BME280;60220;53.552;10.092;2024-03-23T01:25:52;100531.31;;;9.66;100.00
72285;BME280;60220;53.552;10.092;2024-03-23T01:28:22;100522.91;;;9.41;100.00
72285;BME280;60220;53.552;10.092;2024-03-23T01:30:49;100526.03;;;9.70;100.00
72285;BME280;60220;53.552;10.092;2024-03-23T01:33:15;100529.72;;;9.54;100.00
72285;BME280;60220;53.552;10.092;2024-03-23T01:35:44;100535.25;;;9.27;100.00
72285;BME280;60220;53.552;10.092;2024-03-23T01:38:10;100529.56;;;8.88;100.00
72285;BME280;60220;53.552;10.092;2024-03-23T01:40:36;100533.56;;;9.24;100.00
72285;BME280;60220;53.552;10.092;2024-03-23T01:43:07;100528.19;;;9.35;100.00
72285;BME280;60220;53.552;10.092;2024-03-23T01:45:36;100510.41;;;8.86;100.00
72285;BME280;60220;53.552;10.092;2024-03-23T01:48:03;100517.13;;;9.08;100.00
72285;BME280;60220;53.552;10.092;2024-03-23T01:50:31;100518.78;;;9.19;100.00
72285;BME280;60220;53.552;10.092;2024-03-23T01:52:59;100509.03;;;8.44;100.00
72285;BME280;60220;53.552;10.092;2024-03-23T01:55:26;100498.19;;;8.85;100.00
72285;BME280;60220;53.552;10.092;2024-03-23T01:57:52;100499.94;;;8.83;100.00
72285;BME280;60220;53.552;10.092;2024-03-23T02:00:19;100499.88;;;8.89;100.00
72285;BME280;60220;53.552;10.092;2024-03-23T02:02:46;100487.66;;;8.90;100.00
72285;BME280;60220;53.552;10.092;2024-03-23T02:05:13;100488.50;;;8.92;100.00
72285;BME280;60220;53.552;10.092;2024-03-23T02:07:40;100491.06;;;8.99;100.00
72285;BME280;60220;53.552;10.092;2024-03-23T02:10:10;100466.34;;;9.25;100.00
72285;BME280;60220;53.552;10.092;2024-03-23T02:12:38;100485.22;;;8.75;100.00
72285;BME280;60220;53.552;10.092;2024-03-23T02:15:05;100483.47;;;8.72;100.00
72285;BME280;60220;53.552;10.092;2024-03-23T02:17:34;100472.50;;;9.18;100.00
72285;BME280;60220;53.552;10.092;2024-03-23T02:20:05;100470.16;;;8.96;100.00
72285;BME280;60220;53.552;10.092;2024-03-23T02:22:36;100465.16;;;8.72;100.00
72285;BME280;60220;53.552;10.092;2024-03-23T02:25:05;100461.66;;;8.73;100.00
72285;BME280;60220;53.552;10.092;2024-03-23T02:27:31;100458.16;;;8.74;100.00
72285;BME280;60220;53.552;10.092;2024-03-23T02:29:58;100463.72;;;8.41;100.00
72285;BME280;60220;53.552;10.092;2024-03-23T02:32:23;100453.03;;;8.62;100.00
72285;BME280;60220;53.552;10.092;2024-03-23T02:34:50;100446.63;;;8.92;100.00
72285;BME280;60220;53.552;10.092;2024-03-23T02:37:16;100448.63;;;8.69;100.00
72285;BME280;60220;53.552;10.092;2024-03-23T02:39:42;100449.66;;;8.54;100.00
72285;BME280;60220;53.552;10.092;2024-03-23T02:42:09;100449.63;;;8.55;100.00
72285;BME280;60220;53.552;10.092;2024-03-23T02:44:36;100454.59;;;8.83;100.00
72285;BME280;60220;53.552;10.092;2024-03-23T02:47:02;100447.53;;;8.89;100.00
72285;BME280;60220;53.552;10.092;2024-03-23T02:49:28;100430.91;;;8.96;100.00
72285;BME280;60220;53.552;10.092;2024-03-23T02:51:54;100435.69;;;8.56;100.00
72285;BME280;60220;53.552;10.092;2024-03-23T02:54:21;100436.31;;;8.78;100.00
72285;BME280;60220;53.552;10.092;2024-03-23T02:56:46;100433.31;;;9.12;100.00
72285;BME280;60220;53.552;10.092;2024-03-23T02:59:14;100433.50;;;8.96;100.00
72285;BME280;60220;53.552;10.092;2024-03-23T03:01:40;100430.13;;;8.85;100.00
72285;BME280;60220;53.552;10.092;2024-03-23T03:04:07;100427.56;;;8.81;100.00
72285;BME280;60220;53.552;10.092;2024-03-23T03:06:32;100437.34;;;8.65;100.00
72285;BME280;60220;53.552;10.092;2024-03-23T03:08:59;100425.72;;;8.90;100.00
72285;BME280;60220;53.552;10.092;2024-03-23T03:11:24;100415.09;;;9.04;100.00
72285;BME280;60220;53.552;10.092;2024-03-23T03:13:52;100419.84;;;8.67;100.00
72285;BME280;60220;53.552;10.092;2024-03-23T03:16:19;100411.78;;;8.88;100.00
72285;BME280;60220;53.552;10.092;2024-03-23T03:18:48;100411.53;;;8.26;100.00
72285;BME280;60220;53.552;10.092;2024-03-23T03:21:15;100405.06;;;8.66;100.00
72285;BME280;60220;53.552;10.092;2024-03-23T03:23:42;100402.41;;;8.68;100.00
72285;BME280;60220;53.552;10.092;2024-03-23T03:26:09;100404.16;;;8.69;100.00
72285;BME280;60220;53.552;10.092;2024-03-23T03:28:36;100409.78;;;8.25;100.00
72285;BME280;60220;53.552;10.092;2024-03-23T03:31:02;100400.19;;;8.30;100.00
72285;BME280;60220;53.552;10.092;2024-03-23T03:33:30;100398.78;;;8.79;100.00
72285;BME280;60220;53.552;10.092;2024-03-23T03:35:55;100400.16;;;8.28;100.00
72285;BME280;60220;53.552;10.092;2024-03-23T03:38:22;100394.84;;;8.40;100.00
72285;BME280;60220;53.552;10.092;2024-03-23T03:40:48;100380.75;;;8.55;100.00
72285;BME280;60220;53.552;10.092;2024-03-23T03:43:14;100376.94;;;8.83;100.00
72285;BME280;60220;53.552;10.092;2024-03-23T03:45:43;100381.47;;;8.69;100.00
72285;BME280;60220;53.552;10.092;2024-03-23T03:48:17;100381.28;;;8.84;100.00
72285;BME280;60220;53.552;10.092;2024-03-23T03:50:44;100374.91;;;8.30;100.00
72285;BME280;60220;53.552;10.092;2024-03-23T03:53:13;100369.06;;;8.86;100.00
72285;BME280;60220;53.552;10.092;2024-03-23T03:55:38;100373.34;;;8.92;100.00
72285;BME280;60220;53.552;10.092;2024-03-23T03:58:05;100364.59;;;9.57;100.00
72285;BME280;60220;53.552;10.092;2024-03-23T04:00:31;100361.09;;;8.95;100.00
72285;BME280;60220;53.552;10.092;2024-03-23T04:02:57;100359.66;;;8.69;100.00
72285;BME280;60220;53.552;10.092;2024-03-23T04:05:23;100361.72;;;9.13;100.00
72285;BME280;60220;53.552;10.092;2024-03-23T04:07:51;100364.88;;;8.70;100.00
72285;BME280;60220;53.552;10.092;2024-03-23T04:10:20;100365.44;;;8.96;100.00
72285;BME280;60220;53.552;10.092;2024-03-23T04:12:47;100356.41;;;8.47;100.00
72285;BME280;60220;53.552;10.092;2024-03-23T04:15:13;100353.25;;;8.92;100.00
72285;BME280;60220;53.552;10.092;2024-03-23T04:17:39;100358.44;;;8.98;100.00
72285;BME280;60220;53.552;10.092;2024-03-23T04:20:09;100351.63;;;8.82;100.00
72285;BME280;60220;53.552;10.092;2024-03-23T04:22:41;100349.06;;;8.79;100.00
72285;BME280;60220;53.552;10.092;2024-03-23T04:25:12;100344.78;;;9.39;100.00
72285;BME280;60220;53.552;10.092;2024-03-23T04:27:41;100339.38;;;9.50;100.00
72285;BME280;60220;53.552;10.092;2024-03-23T04:30:08;100319.44;;;9.40;100.00
72285;BME280;60220;53.552;10.092;2024-03-23T04:32:36;100325.50;;;9.42;100.00
72285;BME280;60220;53.552;10.092;2024-03-23T04:35:02;100332.09;;;9.11;100.00
72285;BME280;60220;53.552;10.092;2024-03-23T04:37:33;100346.44;;;7.94;100.00
72285;BME280;60220;53.552;10.092;2024-03-23T04:40:00;100359.84;;;7.50;100.00
72285;BME280;60220;53.552;10.092;2024-03-23T04:42:29;100359.84;;;7.50;100.00
72285;BME280;60220;53.552;10.092;2024-03-23T04:44:55;100353.44;;;8.80;100.00
72285;BME280;60220;53.552;10.092;2024-03-23T04:47:22;100351.56;;;8.88;100.00
72285;BME280;60220;53.552;10.092;2024-03-23T04:49:49;100362.66;;;8.37;100.00
72285;BME280;60220;53.552;10.092;2024-03-23T04:52:16;100361.41;;;8.68;100.00
72285;BME280;60220;53.552;10.092;2024-03-23T04:54:45;100364.09;;;8.62;100.00
72285;BME280;60220;53.552;10.092;2024-03-23T04:57:11;100356.06;;;8.77;100.00
72285;BME280;60220;53.552;10.092;2024-03-23T04:59:38;100345.38;;;8.95;100.00
72285;BME280;60220;53.552;10.092;2024-03-23T05:02:07;100334.44;;;8.64;100.00
72285;BME280;60220;53.552;10.092;2024-03-23T05:04:33;100332.75;;;8.59;100.00
72285;BME280;60220;53.552;10.092;2024-03-23T05:06:59;100330.81;;;7.88;100.00
72285;BME280;60220;53.552;10.092;2024-03-23T05:09:25;100324.88;;;7.69;100.00
72285;BME280;60220;53.552;10.092;2024-03-23T05:11:57;100331.88;;;7.67;100.00
72285;BME280;60220;53.552;10.092;2024-03-23T05:14:23;100329.66;;;8.17;100.00
72285;BME280;60220;53.552;10.092;2024-03-23T05:16:51;100334.97;;;8.11;100.00
72285;BME280;60220;53.552;10.092;2024-03-23T05:19:16;100335.44;;;7.52;100.00
72285;BME280;60220;53.552;10.092;2024-03-23T05:21:46;100340.91;;;7.20;100.00
72285;BME280;60220;53.552;10.092;2024-03-23T05:24:13;100328.78;;;7.03;100.00
72285;BME280;60220;53.552;10.092;2024-03-23T05:26:40;100339.66;;;7.73;100.00
72285;BME280;60220;53.552;10.092;2024-03-23T05:29:05;100328.00;;;8.07;100.00
72285;BME280;60220;53.552;10.092;2024-03-23T05:31:36;100317.97;;;8.55;100.00
72285;BME280;60220;53.552;10.092;2024-03-23T05:34:05;100323.78;;;7.94;100.00
72285;BME280;60220;53.552;10.092;2024-03-23T05:36:34;100332.00;;;7.52;100.00
72285;BME280;60220;53.552;10.092;2024-03-23T05:39:01;100333.38;;;7.94;100.00
72285;BME280;60220;53.552;10.092;2024-03-23T05:41:28;100325.78;;;7.66;100.00
72285;BME280;60220;53.552;10.092;2024-03-23T05:43:56;100318.94;;;7.52;100.00
72285;BME280;60220;53.552;10.092;2024-03-23T05:46:23;100306.88;;;8.35;100.00
72285;BME280;60220;53.552;10.092;2024-03-23T05:48:50;100314.13;;;8.02;100.00
72285;BME280;60220;53.552;10.092;2024-03-23T05:51:18;100299.66;;;8.55;100.00
72285;BME280;60220;53.552;10.092;2024-03-23T05:53:44;100281.19;;;9.30;100.00
72285;BME280;60220;53.552;10.092;2024-03-23T05:56:11;100290.34;;;8.31;100.00
72285;BME280;60220;53.552;10.092;2024-03-23T05:58:36;100282.09;;;8.66;100.00
72285;BME280;60220;53.552;10.092;2024-03-23T06:01:03;100288.22;;;7.81;100.00
72285;BME280;60220;53.552;10.092;2024-03-23T06:03:29;100280.47;;;7.67;100.00
72285;BME280;60220;53.552;10.092;2024-03-23T06:05:56;100286.66;;;7.59;100.00
72285;BME280;60220;53.552;10.092;2024-03-23T06:08:23;100302.69;;;7.10;100.00
72285;BME280;60220;53.552;10.092;2024-03-23T06:10:50;100296.88;;;7.83;100.00
72285;BME280;60220;53.552;10.092;2024-03-23T06:13:18;100282.03;;;7.90;100.00
72285;BME280;60220;53.552;10.092;2024-03-23T06:15:45;100296.78;;;7.95;100.00
72285;BME280;60220;53.552;10.092;2024-03-23T06:18:12;100292.47;;;7.90;100.00
72285;BME280;60220;53.552;10.092;2024-03-23T06:20:38;100291.31;;;8.19;100.00
72285;BME280;60220;53.552;10.092;2024-03-23T06:23:04;100286.94;;;8.20;100.00
72285;BME280;60220;53.552;10.092;2024-03-23T06:25:32;100292.44;;;8.72;100.00
72285;BME280;60220;53.552;10.092;2024-03-23T06:27:58;100295.69;;;8.92;100.00
72285;BME280;60220;53.552;10.092;2024-03-23T06:30:26;100287.66;;;9.04;100.00
72285;BME280;60220;53.552;10.092;2024-03-23T06:32:52;100282.28;;;9.14;100.00
72285;BME280;60220;53.552;10.092;2024-03-23T06:35:21;100282.91;;;8.71;100.00
72285;BME280;60220;53.552;10.092;2024-03-23T06:37:49;100277.63;;;7.93;100.00
72285;BME280;60220;53.552;10.092;2024-03-23T06:40:16;100280.84;;;8.19;100.00
72285;BME280;60220;53.552;10.092;2024-03-23T06:42:43;100286.47;;;8.64;100.00
72285;BME280;60220;53.552;10.092;2024-03-23T06:45:10;100290.69;;;8.74;100.00
72285;BME280;60220;53.552;10.092;2024-03-23T06:47:35;100281.88;;;8.05;100.00
72285;BME280;60220;53.552;10.092;2024-03-23T06:50:02;100288.88;;;8.81;100.00
72285;BME280;60220;53.552;10.092;2024-03-23T06:52:28;100281.91;;;8.81;100.00
72285;BME280;60220;53.552;10.092;2024-03-23T06:54:55;100274.13;;;8.75;100.00
72285;BME280;60220;53.552;10.092;2024-03-23T06:57:21;100277.78;;;9.25;100.00
72285;BME280;60220;53.552;10.092;2024-03-23T06:59:49;100279.22;;;8.86;100.00
72285;BME280;60220;53.552;10.092;2024-03-23T07:02:14;100279.16;;;8.89;100.00
72285;BME280;60220;53.552;10.092;2024-03-23T07:04:41;100266.91;;;9.49;100.00
72285;BME280;60220;53.552;10.092;2024-03-23T07:07:07;100273.94;;;8.15;100.00
72285;BME280;60220;53.552;10.092;2024-03-23T07:09:34;100279.72;;;8.45;100.00
72285;BME280;60220;53.552;10.092;2024-03-23T07:11:59;100280.59;;;8.45;100.00
72285;BME280;60220;53.552;10.092;2024-03-23T07:14:28;100275.13;;;8.62;100.00
72285;BME280;60220;53.552;10.092;2024-03-23T07:16:55;100276.06;;;8.59;100.00
72285;BME280;60220;53.552;10.092;2024-03-23T07:19:25;100264.97;;;8.38;100.00
72285;BME280;60220;53.552;10.092;2024-03-23T07:21:50;100281.78;;;8.87;100.00
72285;BME280;60220;53.552;10.092;2024-03-23T07:24:19;100284.63;;;9.32;100.00
72285;BME280;60220;53.552;10.092;2024-03-23T07:26:45;100281.09;;;9.36;100.00
72285;BME280;60220;53.552;10.092;2024-03-23T07:29:12;100275.81;;;8.78;100.00
72285;BME280;60220;53.552;10.092;2024-03-23T07:31:38;100278.75;;;8.52;100.00
72285;BME280;60220;53.552;10.092;2024-03-23T07:34:06;100279.03;;;9.56;100.00
72285;BME280;60220;53.552;10.092;2024-03-23T07:36:34;100278.91;;;9.62;100.00
72285;BME280;60220;53.552;10.092;2024-03-23T07:39:01;100275.06;;;8.68;100.00
72285;BME280;60220;53.552;10.092;2024-03-23T07:41:26;100269.91;;;9.78;100.00
72285;BME280;60220;53.552;10.092;2024-03-23T07:43:53;100274.94;;;9.37;100.00
72285;BME280;60220;53.552;10.092;2024-03-23T07:46:20;100272.53;;;9.25;100.00
72285;BME280;60220;53.552;10.092;2024-03-23T07:48:47;100266.81;;;10.06;100.00
72285;BME280;60220;53.552;10.092;2024-03-23T07:51:16;100263.25;;;10.07;100.00
72285;BME280;60220;53.552;10.092;2024-03-23T07:53:43;100260.16;;;10.34;100.00
72285;BME280;60220;53.552;10.092;2024-03-23T07:56:09;100263.94;;;10.21;100.00
72285;BME280;60220;53.552;10.092;2024-03-23T07:58:37;100257.84;;;9.68;100.00
72285;BME280;60220;53.552;10.092;2024-03-23T08:01:06;100254.06;;;10.32;100.00
72285;BME280;60220;53.552;10.092;2024-03-23T08:03:34;100254.09;;;9.81;100.00
72285;BME280;60220;53.552;10.092;2024-03-23T08:06:06;100248.88;;;9.81;100.00
72285;BME280;60220;53.552;10.092;2024-03-23T08:08:35;100254.06;;;10.32;100.00
72285;BME280;60220;53.552;10.092;2024-03-23T08:11:01;100253.47;;;10.18;100.00
72285;BME280;60220;53.552;10.092;2024-03-23T08:13:28;100257.41;;;10.82;100.00
72285;BME280;60220;53.552;10.092;2024-03-23T08:15:56;100247.72;;;10.42;100.00
72285;BME280;60220;53.552;10.092;2024-03-23T08:18:23;100246.97;;;9.91;100.00
72285;BME280;60220;53.552;10.092;2024-03-23T08:20:57;100244.06;;;9.57;100.00
72285;BME280;60220;53.552;10.092;2024-03-23T08:23:24;100249.00;;;9.75;100.00
72285;BME280;60220;53.552;10.092;2024-03-23T08:25:52;100247.09;;;9.83;100.00
72285;BME280;60220;53.552;10.092;2024-03-23T08:28:19;100236.44;;;9.92;100.00
72285;BME280;60220;53.552;10.092;2024-03-23T08:30:44;100241.50;;;10.02;100.00
72285;BME280;60220;53.552;10.092;2024-03-23T08:33:11;100244.50;;;9.82;100.00
72285;BME280;60220;53.552;10.092;2024-03-23T08:35:38;100238.19;;;10.38;100.00
72285;BME280;60220;53.552;10.092;2024-03-23T08:38:05;100240.34;;;10.19;100.00
72285;BME280;60220;53.552;10.092;2024-03-23T08:40:33;100241.81;;;11.49;100.00
72285;BME280;60220;53.552;10.092;2024-03-23T08:43:01;100238.34;;;11.47;100.00
72285;BME280;60220;53.552;10.092;2024-03-23T08:45:26;100234.84;;;11.11;100.00
72285;BME280;60220;53.552;10.092;2024-03-23T08:47:55;100230.63;;;11.77;100.00
72285;BME280;60220;53.552;10.092;2024-03-23T08:50:21;100224.88;;;10.47;100.00
72285;BME280;60220;53.552;10.092;2024-03-23T08:52:50;100222.31;;;10.86;100.00
72285;BME280;60220;53.552;10.092;2024-03-23T08:55:16;100212.31;;;11.71;100.00
72285;BME280;60220;53.552;10.092;2024-03-23T08:57:42;100225.94;;;11.17;100.00
72285;BME280;60220;53.552;10.092;2024-03-23T09:00:11;100221.69;;;11.13;100.00
72285;BME280;60220;53.552;10.092;2024-03-23T09:02:38;100221.56;;;10.39;100.00
72285;BME280;60220;53.552;10.092;2024-03-23T09:05:05;100221.13;;;10.60;100.00
72285;BME280;60220;53.552;10.092;2024-03-23T09:07:34;100218.09;;;10.37;100.00
72285;BME280;60220;53.552;10.092;2024-03-23T09:09:59;100212.94;;;10.75;100.00
72285;BME280;60220;53.552;10.092;2024-03-23T09:12:26;100221.06;;;9.74;100.00
72285;BME280;60220;53.552;10.092;2024-03-23T09:14:52;100218.53;;;10.59;100.00
72285;BME280;60220;53.552;10.092;2024-03-23T09:17:20;100204.09;;;10.38;100.00
72285;BME280;60220;53.552;10.092;2024-03-23T09:19:46;100209.97;;;10.91;100.00
72285;BME280;60220;53.552;10.092;2024-03-23T09:22:12;100204.91;;;11.18;100.00
72285;BME280;60220;53.552;10.092;2024-03-23T09:24:38;100200.88;;;11.75;100.00
72285;BME280;60220;53.552;10.092;2024-03-23T09:27:05;100212.03;;;12.46;100.00
72285;BME280;60220;53.552;10.092;2024-03-23T09:29:31;100202.28;;;11.88;100.00
72285;BME280;60220;53.552;10.092;2024-03-23T09:31:59;100196.75;;;11.29;100.00
72285;BME280;60220;53.552;10.092;2024-03-23T09:34:26;100205.19;;;10.28;100.00
72285;BME280;60220;53.552;10.092;2024-03-23T09:36:53;100197.31;;;10.28;100.00
72285;BME280;60220;53.552;10.092;2024-03-23T09:39:19;100201.06;;;10.15;100.00
72285;BME280;60220;53.552;10.092;2024-03-23T09:41:45;100195.84;;;10.12;100.00
72285;BME280;60220;53.552;10.092;2024-03-23T09:44:11;100204.63;;;10.11;100.00
72285;BME280;60220;53.552;10.092;2024-03-23T09:46:40;100205.25;;;9.77;100.00
72285;BME280;60220;53.552;10.092;2024-03-23T09:49:07;100196.41;;;9.84;100.00
72285;BME280;60220;53.552;10.092;2024-03-23T09:51:36;100195.84;;;9.67;100.00
72285;BME280;60220;53.552;10.092;2024-03-23T09:54:02;100192.25;;;10.19;100.00
72285;BME280;60220;53.552;10.092;2024-03-23T09:56:31;100194.88;;;10.60;100.00
72285;BME280;60220;53.552;10.092;2024-03-23T09:59:02;100195.06;;;10.51;100.00
72285;BME280;60220;53.552;10.092;2024-03-23T10:01:29;100191.41;;;10.58;100.00
72285;BME280;60220;53.552;10.092;2024-03-23T10:03:55;100182.34;;;10.73;100.00
72285;BME280;60220;53.552;10.092;2024-03-23T10:06:22;100187.91;;;10.59;100.00
72285;BME280;60220;53.552;10.092;2024-03-23T10:08:51;100188.44;;;10.35;100.00
72285;BME280;60220;53.552;10.092;2024-03-23T10:11:22;100184.41;;;10.17;100.00
72285;BME280;60220;53.552;10.092;2024-03-23T10:13:48;100186.28;;;10.52;100.00
72285;BME280;60220;53.552;10.092;2024-03-23T10:16:24;100184.38;;;10.60;100.00
72285;BME280;60220;53.552;10.092;2024-03-23T10:18:52;100180.47;;;10.78;100.00
72285;BME280;60220;53.552;10.092;2024-03-23T10:21:19;100179.63;;;10.76;100.00
72285;BME280;60220;53.552;10.092;2024-03-23T10:23:44;100175.38;;;11.09;100.00
72285;BME280;60220;53.552;10.092;2024-03-23T10:26:18;100165.03;;;10.64;100.00
72285;BME280;60220;53.552;10.092;2024-03-23T10:28:54;100170.88;;;11.14;100.00
72285;BME280;60220;53.552;10.092;2024-03-23T10:31:25;100161.97;;;11.19;100.00
72285;BME280;60220;53.552;10.092;2024-03-23T10:33:53;100157.63;;;11.52;100.00
72285;BME280;60220;53.552;10.092;2024-03-23T10:36:21;100152.59;;;11.09;100.00
72285;BME280;60220;53.552;10.092;2024-03-23T10:38:47;100159.78;;;11.01;100.00
72285;BME280;60220;53.552;10.092;2024-03-23T10:41:17;100154.72;;;11.29;100.00
72285;BME280;60220;53.552;10.092;2024-03-23T10:43:43;100160.63;;;11.73;100.00
72285;BME280;60220;53.552;10.092;2024-03-23T10:46:11;100171.69;;;10.81;100.00
72285;BME280;60220;53.552;10.092;2024-03-23T10:48:37;100173.69;;;10.29;100.00
72285;BME280;60220;53.552;10.092;2024-03-23T10:51:05;100172.41;;;9.09;100.00
72285;BME280;60220;53.552;10.092;2024-03-23T10:53:33;100179.47;;;9.04;100.00
72285;BME280;60220;53.552;10.092;2024-03-23T10:56:00;100166.44;;;8.99;100.00
72285;BME280;60220;53.552;10.092;2024-03-23T10:58:30;100168.81;;;9.16;100.00
72285;BME280;60220;53.552;10.092;2024-03-23T11:00:57;100162.00;;;9.55;100.00
72285;BME280;60220;53.552;10.092;2024-03-23T11:03:30;100153.78;;;9.73;100.00
72285;BME280;60220;53.552;10.092;2024-03-23T11:05:58;100155.47;;;9.77;100.00
72285;BME280;60220;53.552;10.092;2024-03-23T11:08:31;100164.00;;;8.89;100.00
72285;BME280;60220;53.552;10.092;2024-03-23T11:11:15;100165.16;;;8.71;100.00
72285;BME280;60220;53.552;10.092;2024-03-23T11:13:43;100158.31;;;8.61;100.00
72285;BME280;60220;53.552;10.092;2024-03-23T11:16:14;100155.91;;;9.55;100.00
72285;BME280;60220;53.552;10.092;2024-03-23T11:18:40;100152.44;;;9.99;100.00
72285;BME280;60220;53.552;10.092;2024-03-23T11:21:07;100141.94;;;9.99;100.00
72285;BME280;60220;53.552;10.092;2024-03-23T11:23:33;100143.28;;;10.21;100.00
72285;BME280;60220;53.552;10.092;2024-03-23T11:25:59;100133.19;;;10.79;100.00
72285;BME280;60220;53.552;10.092;2024-03-23T11:28:25;100133.25;;;10.40;100.00
72285;BME280;60220;53.552;10.092;2024-03-23T11:30:53;100128.25;;;9.84;100.00
72285;BME280;60220;53.552;10.092;2024-03-23T11:33:19;100130.66;;;9.95;100.00
72285;BME280;60220;53.552;10.092;2024-03-23T11:35:48;100134.34;;;10.28;100.00
72285;BME280;60220;53.552;10.092;2024-03-23T11:38:14;100131.81;;;10.25;100.00
72285;BME280;60220;53.552;10.092;2024-03-23T11:40:46;100142.88;;;9.50;100.00
72285;BME280;60220;53.552;10.092;2024-03-23T11:43:15;100144.06;;;8.80;100.00
72285;BME280;60220;53.552;10.092;2024-03-23T11:45:45;100132.00;;;9.24;100.00
72285;BME280;60220;53.552;10.092;2024-03-23T11:48:14;100133.59;;;9.32;100.00
72285;BME280;60220;53.552;10.092;2024-03-23T11:50:43;100126.47;;;9.40;100.00
72285;BME280;60220;53.552;10.092;2024-03-23T11:53:13;100117.88;;;9.78;100.00
72285;BME280;60220;53.552;10.092;2024-03-23T11:55:46;100118.81;;;10.19;100.00
72285;BME280;60220;53.552;10.092;2024-03-23T11:58:13;100128.91;;;10.75;100.00
72285;BME280;60220;53.552;10.092;2024-03-23T12:00:40;100124.56;;;10.74;100.00
72285;BME280;60220;53.552;10.092;2024-03-23T12:03:08;100115.47;;;10.11;100.00
72285;BME280;60220;53.552;10.092;2024-03-23T12:05:40;100119.19;;;10.81;100.00
72285;BME280;60220;53.552;10.092;2024-03-23T12:08:16;100108.31;;;10.94;100.00
72285;BME280;60220;53.552;10.092;2024-03-23T12:10:44;100118.63;;;11.36;100.00
72285;BME280;60220;53.552;10.092;2024-03-23T12:13:10;100129.44;;;11.25;100.00
72285;BME280;60220;53.552;10.092;2024-03-23T12:15:37;100152.19;;;10.52;100.00
72285;BME280;60220;53.552;10.092;2024-03-23T12:18:08;100159.63;;;8.89;100.00
72285;BME280;60220;53.552;10.092;2024-03-23T12:20:36;100160.59;;;8.84;100.00
72285;BME280;60220;53.552;10.092;2024-03-23T12:23:07;100163.84;;;8.99;100.00
72285;BME280;60220;53.552;10.092;2024-03-23T12:25:34;100154.47;;;9.37;100.00
72285;BME280;60220;53.552;10.092;2024-03-23T12:28:03;100138.13;;;10.15;100.00
72285;BME280;60220;53.552;10.092;2024-03-23T12:30:32;100139.31;;;9.99;100.00
72285;BME280;60220;53.552;10.092;2024-03-23T12:32:57;100126.19;;;10.00;100.00
72285;BME280;60220;53.552;10.092;2024-03-23T12:35:24;100131.75;;;9.85;100.00
72285;BME280;60220;53.552;10.092;2024-03-23T12:37:50;100133.59;;;9.78;100.00
72285;BME280;60220;53.552;10.092;2024-03-23T12:40:17;100137.19;;;9.74;100.00
72285;BME280;60220;53.552;10.092;2024-03-23T12:42:43;100149.00;;;9.50;100.00
72285;BME280;60220;53.552;10.092;2024-03-23T12:45:10;100148.88;;;8.49;100.00
72285;BME280;60220;53.552;10.092;2024-03-23T12:47:36;100177.50;;;8.60;100.00
72285;BME280;60220;53.552;10.092;2024-03-23T12:50:03;100200.53;;;8.34;100.00
72285;BME280;60220;53.552;10.092;2024-03-23T12:52:31;100176.69;;;7.83;100.00
72285;BME280;60220;53.552;10.092;2024-03-23T12:54:58;100183.53;;;7.96;100.00
72285;BME280;60220;53.552;10.092;2024-03-23T12:57:25;100185.06;;;8.12;100.00
72285;BME280;60220;53.552;10.092;2024-03-23T12:59:52;100182.31;;;8.25;100.00
72285;BME280;60220;53.552;10.092;2024-03-23T13:02:19;100170.13;;;8.23;100.00
72285;BME280;60220;53.552;10.092;2024-03-23T13:04:46;100166.34;;;7.72;100.00
72285;BME280;60220;53.552;10.092;2024-03-23T13:07:14;100180.91;;;7.96;100.00
72285;BME280;60220;53.552;10.092;2024-03-23T13:09:41;100193.28;;;7.81;100.00
72285;BME280;60220;53.552;10.092;2024-03-23T13:12:07;100200.66;;;7.38;100.00
72285;BME280;60220;53.552;10.092;2024-03-23T13:14:35;100202.97;;;7.68;100.00
72285;BME280;60220;53.552;10.092;2024-03-23T13:17:01;100186.81;;;7.29;100.00
72285;BME280;60220;53.552;10.092;2024-03-23T13:19:29;100198.16;;;7.22;100.00
72285;BME280;60220;53.552;10.092;2024-03-23T13:21:56;100193.91;;;7.17;100.00
72285;BME280;60220;53.552;10.092;2024-03-23T13:24:27;100189.53;;;7.14;100.00
72285;BME280;60220;53.552;10.092;2024-03-23T13:26:53;100190.25;;;7.33;100.00
72285;BME280;60220;53.552;10.092;2024-03-23T13:29:21;100186.56;;;7.57;100.00
72285;BME280;60220;53.552;10.092;2024-03-23T13:31:50;100180.13;;;7.88;100.00